Time;durP1;ratioP1;P1;durP2;ratioP2;P2;SDS_P1;SDS_P2;PMS_P1;PMS_P2;Temp;Humidity;BMP_temperature;BMP_pressure;BME280_temperature;BME280_humidity;BME280_pressure;Samples;Min_cycle;Max_cycle;Signal;HPM_P1;HPM_P2
2023/04/02 00:00:09;;;;;;;18.90;17.60;;;;;;;7.14;100.00;100929.00;5097728;27;20027;-58
2023/04/02 00:03:09;;;;;;;17.90;16.60;;;;;;;7.19;100.00;100935.78;5115039;28;20470;-58
2023/04/02 00:05:49;;;;;;;18.70;17.30;;;;;;;7.11;100.00;100943.22;5092943;28;20421;-57
2023/04/02 00:08:42;;;;;;;17.90;16.70;;;;;;;7.12;100.00;100946.72;5115013;28;20497;-58
2023/04/02 00:11:09;;;;;;;17.15;15.98;;;;;;;7.03;100.00;100943.59;5116386;27;20034;-58
2023/04/02 00:13:42;;;;;;;16.77;15.68;;;;;;;6.99;100.00;100947.28;5129771;27;20055;-58
2023/04/02 00:16:12;;;;;;;15.73;14.73;;;;;;;6.99;100.00;100949.94;5111251;28;20023;-57
2023/04/02 00:18:45;;;;;;;17.40;16.20;;;;;;;6.97;100.00;100958.88;5113192;28;20016;-58
2023/04/02 00:21:19;;;;;;;17.63;16.42;;;;;;;7.08;100.00;100963.66;5114372;27;20036;-57
2023/04/02 00:23:45;;;;;;;20.13;18.63;;;;;;;7.03;100.00;100964.75;5103655;28;20489;-58
2023/04/02 00:26:33;;;;;;;94.50;84.32;;;;;;;6.79;100.00;100952.63;5112830;28;20027;-58
2023/04/02 00:29:00;;;;;;;215.50;188.07;;;;;;;6.93;100.00;100975.81;5115260;27;20043;-57
2023/04/02 00:31:26;;;;;;;96.57;86.22;;;;;;;6.91;100.00;100981.19;5096613;28;20102;-57
2023/04/02 00:33:53;;;;;;;25.60;23.70;;;;;;;6.88;100.00;100983.94;5095817;28;20558;-57
2023/04/02 00:36:20;;;;;;;39.28;35.65;;;;;;;6.81;100.00;100987.81;5095915;28;20108;-57
2023/04/02 00:38:47;;;;;;;21.42;19.73;;;;;;;6.86;100.00;101001.69;5114380;28;20020;-57
2023/04/02 00:41:18;;;;;;;27.10;24.70;;;;;;;6.91;100.00;100998.81;5129580;27;20390;-57
2023/04/02 00:43:56;;;;;;;19.77;18.17;;;;;;;6.85;100.00;101001.72;5116376;27;20039;-57
2023/04/02 00:46:28;;;;;;;20.27;18.60;;;;;;;6.78;100.00;101009.94;5133330;27;20033;-57
2023/04/02 00:49:09;;;;;;;19.58;18.17;;;;;;;6.78;100.00;101006.44;5102404;28;20019;-58
2023/04/02 00:51:48;;;;;;;20.77;18.98;;;;;;;6.69;100.00;101017.44;5124461;27;20028;-57
2023/04/02 00:54:19;;;;;;;20.67;19.07;;;;;;;6.68;100.00;101016.56;5095628;28;20467;-57
2023/04/02 00:56:49;;;;;;;19.58;18.17;;;;;;;6.69;100.00;101022.72;5095477;28;20034;-57
2023/04/02 00:59:32;;;;;;;;;;;;;;;6.80;100.00;101028.38;5115011;27;20027;-57
2023/04/02 01:02:26;;;;;;;19.65;18.23;;;;;;;6.72;100.00;101035.78;5132534;27;19907;-58
2023/04/02 01:05:22;;;;;;;18.85;17.42;;;;;;;6.69;100.00;101042.06;5132107;27;20027;-57
2023/04/02 01:08:15;;;;;;;20.75;19.15;;;;;;;6.68;100.00;101039.50;5115755;27;20027;-57
2023/04/02 01:10:58;;;;;;;19.00;17.70;;;;;;;6.72;100.00;101051.66;5132431;27;20476;-57
2023/04/02 01:13:39;;;;;;;19.17;17.88;;;;;;;6.66;100.00;101051.94;5134235;27;20034;-57
2023/04/02 01:16:14;;;;;;;22.23;20.63;;;;;;;6.62;100.00;101050.31;5114848;27;20033;-58
2023/04/02 01:19:00;;;;;;;21.92;20.17;;;;;;;6.74;100.00;101060.38;5134283;27;20026;-57
2023/04/02 01:21:32;;;;;;;20.90;19.25;;;;;;;6.75;100.00;101062.09;5092896;28;20032;-57
2023/04/02 01:24:07;;;;;;;21.30;19.65;;;;;;;6.71;100.00;101068.44;5093136;28;20020;-57
2023/04/02 01:26:32;;;;;;;20.90;19.40;;;;;;;6.67;100.00;101070.34;5114308;27;20096;-57
2023/04/02 01:29:05;;;;;;;22.88;21.17;;;;;;;6.69;100.00;101067.66;5113289;28;20530;-57
2023/04/02 01:31:34;;;;;;;21.08;19.48;;;;;;;6.61;100.00;101075.88;5112542;28;20019;-58
2023/04/02 01:34:02;;;;;;;19.80;18.35;;;;;;;6.62;100.00;101074.09;5112998;28;20433;-58
2023/04/02 01:36:30;;;;;;;18.02;16.65;;;;;;;6.62;100.00;101079.38;5118573;27;20084;-58
2023/04/02 01:39:28;;;;;;;19.10;17.60;;;;;;;6.57;100.00;101079.59;5133499;27;20528;-58
2023/04/02 01:42:00;;;;;;;18.80;17.40;;;;;;;6.59;100.00;101094.47;5087780;27;20473;-58
2023/04/02 01:44:36;;;;;;;19.48;18.00;;;;;;;6.59;100.00;101099.75;5132951;27;20423;-58
2023/04/02 01:47:05;;;;;;;20.50;19.00;;;;;;;6.41;100.00;101089.09;5106519;28;20079;-58
2023/04/02 01:49:30;;;;;;;21.27;19.67;;;;;;;6.51;100.00;101103.66;5094625;28;20038;-58
2023/04/02 01:51:56;;;;;;;22.38;20.65;;;;;;;6.49;100.00;101103.69;5112689;28;20019;-58
2023/04/02 01:54:22;;;;;;;22.70;20.90;;;;;;;6.49;100.00;101116.91;5113352;27;20370;-58
2023/04/02 01:56:49;;;;;;;21.88;20.15;;;;;;;6.36;100.00;101116.56;5123512;27;20412;-58
2023/04/02 01:59:19;;;;;;;19.40;18.00;;;;;;;6.34;100.00;101122.84;5114967;27;20015;-58
2023/04/02 02:01:59;;;;;;;20.02;18.52;;;;;;;6.32;100.00;101132.59;5132297;27;20019;-58
2023/04/02 02:04:25;;;;;;;19.08;17.67;;;;;;;6.29;100.00;101116.88;5133297;27;20019;-58
2023/04/02 02:06:51;;;;;;;19.00;17.40;;;;;;;6.25;100.00;101139.06;5089854;28;20165;-58
2023/04/02 02:09:31;;;;;;;17.48;16.17;;;;;;;6.24;100.00;101137.34;5112524;28;20023;-58
2023/04/02 02:11:58;;;;;;;20.25;18.65;;;;;;;6.26;100.00;101144.25;5111175;28;20032;-58
2023/04/02 02:14:25;;;;;;;17.27;15.80;;;;;;;6.26;100.00;101144.25;5093923;28;20462;-58
2023/04/02 02:16:57;;;;;;;17.20;16.00;;;;;;;6.17;100.00;101151.69;5125314;27;20478;-58
2023/04/02 02:19:37;;;;;;;19.00;17.52;;;;;;;6.23;100.00;101149.66;5133033;27;20030;-58
2023/04/02 02:22:24;;;;;;;16.45;15.05;;;;;;;6.18;100.00;101162.22;5132774;27;20038;-58
2023/04/02 02:24:53;;;;;;;16.20;14.90;;;;;;;6.15;100.00;101167.63;5132819;27;20023;-58
2023/04/02 02:27:22;;;;;;;15.15;13.93;;;;;;;6.03;100.00;101178.66;5112486;28;20049;-58
2023/04/02 02:29:55;;;;;;;15.23;14.13;;;;;;;6.00;100.00;101179.66;5132541;27;20537;-58
2023/04/02 02:32:25;;;;;;;15.65;14.40;;;;;;;5.98;100.00;101178.84;5132368;27;20024;-58
2023/04/02 02:35:03;;;;;;;14.35;13.25;;;;;;;5.97;100.00;101185.06;5132587;28;20129;-58
2023/04/02 02:37:36;;;;;;;15.00;13.75;;;;;;;5.95;100.00;101192.16;5112847;28;20501;-58
2023/04/02 02:40:07;;;;;;;14.77;13.70;;;;;;;5.84;100.00;101194.31;5132842;28;20027;-58
2023/04/02 02:42:40;;;;;;;13.30;12.40;;;;;;;5.94;100.00;101200.97;5122449;28;20027;-58
2023/04/02 02:45:17;;;;;;;15.38;14.15;;;;;;;5.92;100.00;101216.00;5109619;28;20027;-57
2023/04/02 02:47:44;;;;;;;14.27;13.25;;;;;;;5.93;100.00;101209.81;5099344;28;20494;-58
2023/04/02 02:50:22;;;;;;;13.55;12.55;;;;;;;5.93;100.00;101209.81;5084126;28;20028;-58
2023/04/02 02:52:57;;;;;;;13.05;12.18;;;;;;;6.01;99.29;101217.47;5092086;28;20429;-58
2023/04/02 02:55:30;;;;;;;13.32;12.43;;;;;;;5.99;99.22;101222.78;5111831;28;20032;-58
2023/04/02 02:58:10;;;;;;;12.88;11.98;;;;;;;6.00;99.80;101227.19;5113720;27;20026;-57
2023/04/02 03:00:36;;;;;;;14.93;13.88;;;;;;;6.12;99.83;101231.97;5112820;28;20054;-57
2023/04/02 03:03:06;;;;;;;14.20;13.15;;;;;;;6.06;100.00;101228.69;5111239;28;20024;-58
2023/04/02 03:05:31;;;;;;;11.85;10.75;;;;;;;6.19;99.41;101229.09;5106632;28;20020;-57
2023/04/02 03:08:00;;;;;;;14.65;13.48;;;;;;;6.16;98.54;101245.06;5115303;27;20038;-57
2023/04/02 03:10:55;;;;;;;15.45;14.30;;;;;;;6.18;99.60;101243.19;5103723;28;20031;-58
2023/04/02 03:13:34;;;;;;;14.82;13.73;;;;;;;6.14;100.00;101253.03;5097642;28;20028;-57
2023/04/02 03:16:27;;;;;;;17.20;15.80;;;;;;;6.12;100.00;101252.25;5095864;28;20023;-57
2023/04/02 03:19:11;;;;;;;15.88;14.68;;;;;;;6.16;100.00;101269.69;5115242;27;20051;-58
2023/04/02 03:21:50;;;;;;;16.65;15.35;;;;;;;6.16;99.40;101279.41;5112953;27;20023;-57
2023/04/02 03:24:44;;;;;;;17.98;16.48;;;;;;;6.09;99.56;101279.63;5108465;27;20115;-58
2023/04/02 03:27:16;;;;;;;17.58;16.27;;;;;;;5.76;98.96;101254.44;5073868;28;20039;-58
2023/04/02 03:29:49;;;;;;;18.70;17.08;;;;;;;5.92;99.89;101293.41;5109758;28;20394;-58
2023/04/02 03:32:23;;;;;;;19.50;17.92;;;;;;;5.92;100.00;101297.84;5095130;28;20032;-58
2023/04/02 03:34:54;;;;;;;21.05;19.40;;;;;;;5.86;100.00;101301.56;5098067;28;20488;-58
2023/04/02 03:37:26;;;;;;;19.15;17.55;;;;;;;5.78;100.00;101306.25;5088078;28;20036;-58
2023/04/02 03:40:05;;;;;;;17.23;15.82;;;;;;;5.80;100.00;101320.25;5110086;27;20463;-58
2023/04/02 03:42:46;;;;;;;19.10;17.58;;;;;;;5.82;100.00;101326.31;5096759;28;20063;-58
2023/04/02 03:45:25;;;;;;;18.45;17.05;;;;;;;5.85;100.00;101330.63;5118885;27;20023;-58
2023/04/02 03:47:57;;;;;;;19.77;18.08;;;;;;;5.76;100.00;101334.47;5074733;28;20020;-58
2023/04/02 03:50:53;;;;;;;18.42;16.92;;;;;;;5.71;100.00;101341.69;5114262;28;20456;-58
2023/04/02 03:53:24;;;;;;;19.50;17.77;;;;;;;5.67;100.00;101342.69;5122621;27;20027;-57
2023/04/02 03:55:50;;;;;;;19.60;17.95;;;;;;;5.54;100.00;101330.88;5076198;28;20114;-58
2023/04/02 03:58:37;;;;;;;18.80;17.10;;;;;;;5.65;100.00;101355.09;5121909;27;20035;-58
2023/04/02 04:01:26;;;;;;;18.23;16.92;;;;;;;5.60;100.00;101357.88;5125584;27;20031;-57
2023/04/02 04:03:54;;;;;;;17.98;16.38;;;;;;;5.50;100.00;101367.03;5114608;28;20076;-58
2023/04/02 04:06:26;;;;;;;18.15;16.55;;;;;;;5.64;100.00;101375.34;5114148;28;20102;-58
2023/04/02 04:09:25;;;;;;;17.65;16.33;;;;;;;5.62;99.47;101376.31;5115147;27;20026;-58
2023/04/02 04:11:58;;;;;;;17.80;16.40;;;;;;;5.49;98.90;101372.34;5113645;28;20051;-57
2023/04/02 04:14:39;;;;;;;17.55;16.13;;;;;;;5.51;99.93;101378.47;5114697;28;20449;-57
2023/04/02 04:17:08;;;;;;;17.92;16.55;;;;;;;5.46;99.27;101391.78;5114022;28;20027;-57
2023/04/02 04:20:16;;;;;;;17.83;16.13;;;;;;;5.56;99.17;101403.78;5114725;28;20075;-57
2023/04/02 04:22:42;;;;;;;19.27;17.77;;;;;;;5.56;98.64;101403.78;5106189;28;20047;-57
2023/04/02 04:25:28;;;;;;;18.08;16.50;;;;;;;5.49;99.77;101419.84;5079378;28;20534;-57
2023/04/02 04:28:09;;;;;;;19.45;17.92;;;;;;;5.44;98.65;101419.97;5096736;28;20023;-57
2023/04/02 04:31:16;;;;;;;18.00;16.65;;;;;;;5.55;99.23;101430.19;5128154;27;20030;-57
2023/04/02 04:33:49;;;;;;;20.33;18.45;;;;;;;5.53;99.55;101437.28;5060167;27;20395;-57
2023/04/02 04:36:26;;;;;;;17.98;16.00;;;;;;;5.60;99.51;101441.47;5126131;27;20059;-57
2023/04/02 04:38:58;;;;;;;19.95;18.17;;;;;;;5.50;99.21;101442.66;5116457;27;20453;-58
2023/04/02 04:41:30;;;;;;;19.83;18.35;;;;;;;5.41;98.87;101459.66;5134597;27;20065;-57
2023/04/02 04:44:11;;;;;;;19.77;18.38;;;;;;;5.49;99.22;101460.28;5115456;27;20023;-57
2023/04/02 04:47:09;;;;;;;18.15;16.70;;;;;;;5.44;97.31;101470.09;5132414;27;20044;-57
2023/04/02 04:49:40;;;;;;;13.10;11.70;;;;;;;5.48;98.54;101461.19;5134815;27;20023;-58
2023/04/02 04:52:17;;;;;;;17.90;16.63;;;;;;;5.43;97.81;101473.66;5134344;27;20027;-57
2023/04/02 04:54:45;;;;;;;16.60;15.40;;;;;;;5.29;97.75;101481.13;5134055;27;20114;-57
2023/04/02 04:57:39;;;;;;;17.23;15.93;;;;;;;5.42;97.90;101483.34;5126917;27;20363;-57
2023/04/02 05:00:42;;;;;;;16.10;14.90;;;;;;;5.35;98.00;101492.34;5108821;27;20442;-57
2023/04/02 05:03:28;;;;;;;16.50;15.18;;;;;;;5.39;96.77;101488.72;5082352;28;20057;-57
2023/04/02 05:06:01;;;;;;;15.73;14.52;;;;;;;5.30;96.41;101504.84;5100452;27;20039;-57
2023/04/02 05:08:34;;;;;;;15.68;14.38;;;;;;;5.23;97.22;101513.84;5115611;27;20037;-57
2023/04/02 05:11:08;;;;;;;14.98;13.73;;;;;;;5.14;97.79;101516.75;5121182;27;20386;-57
2023/04/02 05:13:43;;;;;;;15.68;14.50;;;;;;;4.94;96.71;101512.94;5093771;28;20046;-57
2023/04/02 05:16:32;;;;;;;13.75;12.57;;;;;;;5.09;96.92;101532.72;5114221;27;20486;-57
2023/04/02 05:19:07;;;;;;;16.70;15.30;;;;;;;5.06;97.09;101530.19;5113179;28;20402;-57
2023/04/02 05:21:50;;;;;;;17.17;15.77;;;;;;;5.12;97.46;101524.72;5113300;28;20027;-57
2023/04/02 05:24:37;;;;;;;12.48;11.38;;;;;;;5.14;96.32;101535.22;5113089;28;20026;-57
2023/04/02 05:27:16;;;;;;;12.70;11.48;;;;;;;5.05;96.31;101535.47;5114536;27;20327;-57
2023/04/02 05:29:46;;;;;;;16.67;15.25;;;;;;;4.98;95.58;101537.44;5115993;27;20027;-57
2023/04/02 05:32:20;;;;;;;17.05;15.75;;;;;;;4.92;95.89;101549.00;5105252;28;20110;-58
2023/04/02 05:34:52;;;;;;;15.75;14.25;;;;;;;4.99;94.79;101558.47;5093724;28;20134;-58
2023/04/02 05:37:20;;;;;;;15.25;14.07;;;;;;;4.87;95.54;101556.19;5093515;28;20042;-57
2023/04/02 05:39:52;;;;;;;13.57;12.25;;;;;;;4.97;95.37;101568.22;5112938;28;20479;-58
2023/04/02 05:42:26;;;;;;;15.90;14.38;;;;;;;4.96;95.41;101577.00;5129807;27;20035;-58
2023/04/02 05:45:18;;;;;;;15.18;13.70;;;;;;;5.01;94.64;101555.78;5094516;28;20118;-58
2023/04/02 05:47:47;;;;;;;14.00;12.27;;;;;;;5.04;94.69;101578.56;5113049;28;20073;-58
2023/04/02 05:50:35;;;;;;;14.13;11.73;;;;;;;5.07;95.81;101587.25;5112915;28;20143;-58
2023/04/02 05:53:14;;;;;;;17.08;15.70;;;;;;;5.03;95.73;101582.09;5131215;27;20478;-58
2023/04/02 05:56:07;;;;;;;11.77;10.63;;;;;;;5.12;95.15;101593.28;5111448;27;20099;-58
2023/04/02 05:58:53;;;;;;;14.50;13.20;;;;;;;5.14;94.58;101601.97;5109003;28;20023;-57
2023/04/02 06:01:37;;;;;;;17.10;15.68;;;;;;;5.08;93.87;101610.06;5093673;28;20474;-58
2023/04/02 06:04:25;;;;;;;17.50;16.13;;;;;;;5.15;94.34;101616.06;5112473;28;20478;-58
2023/04/02 06:07:07;;;;;;;17.05;15.65;;;;;;;5.23;95.01;101627.22;5113306;28;20102;-57
2023/04/02 06:09:38;;;;;;;17.50;16.02;;;;;;;5.21;93.86;101615.88;5114959;27;20042;-57
2023/04/02 06:12:22;;;;;;;17.35;15.68;;;;;;;5.21;95.19;101624.66;5090136;28;20035;-57
2023/04/02 06:14:48;;;;;;;18.05;16.55;;;;;;;5.10;94.84;101626.72;5075296;28;20164;-57
2023/04/02 06:17:16;;;;;;;19.73;17.85;;;;;;;5.17;94.77;101630.91;5092459;28;20936;-57
2023/04/02 06:19:42;;;;;;;14.63;13.25;;;;;;;5.16;93.05;101647.63;5097595;28;20106;-57
2023/04/02 06:22:20;;;;;;;18.80;17.08;;;;;;;4.91;93.69;101641.28;5076092;28;20108;-57
2023/04/02 06:24:50;;;;;;;19.08;17.38;;;;;;;4.84;93.76;101658.19;5119867;27;20377;-57
2023/04/02 06:27:18;;;;;;;19.45;17.80;;;;;;;4.82;92.56;101665.25;5107653;28;21533;-57
2023/04/02 06:29:46;;;;;;;19.65;17.95;;;;;;;4.88;93.77;101670.38;5073996;28;20076;-57
2023/04/02 06:32:12;;;;;;;17.42;15.93;;;;;;;4.76;92.29;101664.53;5110733;28;20198;-56
2023/04/02 06:34:39;;;;;;;18.77;17.10;;;;;;;4.64;93.34;101663.97;5097060;28;20437;-57
2023/04/02 06:37:20;;;;;;;16.75;15.20;;;;;;;4.74;92.95;101689.19;5123660;28;20031;-57
2023/04/02 06:39:45;;;;;;;14.10;12.60;;;;;;;4.75;91.88;101685.63;5093919;28;20250;-57
2023/04/02 06:42:13;;;;;;;18.25;14.77;;;;;;;4.71;92.00;101684.00;5086704;28;20110;-57
2023/04/02 06:44:38;;;;;;;17.20;15.52;;;;;;;4.63;91.72;101684.19;5092004;28;20378;-57
2023/04/02 06:47:41;;;;;;;16.67;15.02;;;;;;;4.71;92.34;101708.56;5105846;28;20114;-58
2023/04/02 06:50:11;;;;;;;17.25;12.45;;;;;;;4.70;91.10;101717.34;5111811;28;20028;-58
2023/04/02 06:52:52;;;;;;;18.98;17.38;;;;;;;4.64;91.85;101709.63;5110992;28;20027;-58
2023/04/02 06:55:20;;;;;;;16.08;14.60;;;;;;;4.65;91.32;101721.91;5111911;28;20129;-57
2023/04/02 06:57:47;;;;;;;15.00;11.50;;;;;;;4.73;90.62;101732.25;5111931;28;20020;-58
2023/04/02 07:00:36;;;;;;;12.93;11.73;;;;;;;4.69;90.22;101738.50;5097895;28;20031;-57
2023/04/02 07:03:06;;;;;;;15.40;12.27;;;;;;;4.77;90.54;101744.44;5091342;28;20035;-57
2023/04/02 07:05:31;;;;;;;14.07;12.63;;;;;;;4.73;90.37;101751.53;5103976;28;20047;-57
2023/04/02 07:07:57;;;;;;;13.50;12.10;;;;;;;4.73;89.44;101753.31;5093672;28;20059;-57
2023/04/02 07:10:22;;;;;;;13.27;11.18;;;;;;;4.73;89.87;101748.91;5105721;28;20016;-57
2023/04/02 07:12:48;;;;;;;17.05;14.32;;;;;;;4.69;88.83;101776.25;5121201;28;20554;-57
2023/04/02 07:15:22;;;;;;;13.52;12.27;;;;;;;4.80;88.57;101772.50;5111037;28;20056;-57
2023/04/02 07:17:48;;;;;;;12.13;10.00;;;;;;;4.73;89.24;101775.25;5094074;28;20106;-57
2023/04/02 07:20:29;;;;;;;14.40;11.32;;;;;;;4.83;89.54;101794.38;5093041;28;20117;-57
2023/04/02 07:22:55;;;;;;;12.98;11.82;;;;;;;4.77;87.55;101792.75;5112426;28;20027;-58
2023/04/02 07:25:21;;;;;;;13.85;12.55;;;;;;;4.88;87.60;101796.88;5098649;28;20027;-57
2023/04/02 07:27:47;;;;;;;14.30;12.88;;;;;;;4.84;88.07;101801.38;5093592;28;20057;-57
2023/04/02 07:30:13;;;;;;;10.85;9.82;;;;;;;4.83;88.22;101818.09;5092796;28;20024;-57
2023/04/02 07:32:41;;;;;;;11.40;9.80;;;;;;;4.86;86.64;101822.44;5116351;28;20102;-57
2023/04/02 07:35:07;;;;;;;13.30;10.48;;;;;;;4.71;86.17;101821.88;5121461;28;20498;-57
2023/04/02 07:37:32;;;;;;;11.23;10.18;;;;;;;4.66;86.99;101821.13;5109887;28;20034;-57
2023/04/02 07:39:57;;;;;;;12.93;10.38;;;;;;;4.58;86.48;101830.94;5109936;28;20099;-57
2023/04/02 07:42:23;;;;;;;11.35;10.25;;;;;;;4.52;86.59;101833.72;5104948;27;20027;-57
2023/04/02 07:44:49;;;;;;;10.73;9.73;;;;;;;4.52;86.36;101828.44;5117481;27;20029;-57
2023/04/02 07:47:15;;;;;;;10.95;9.63;;;;;;;4.54;85.93;101835.44;5135391;27;20015;-57
2023/04/02 07:49:40;;;;;;;11.73;9.73;;;;;;;4.57;86.40;101837.13;5129877;27;20054;-57
2023/04/02 07:52:06;;;;;;;9.90;8.45;;;;;;;4.54;86.50;101827.53;5098380;27;20122;-57
2023/04/02 07:54:31;;;;;;;10.27;9.25;;;;;;;4.55;84.68;101838.91;5115106;28;20394;-58
2023/04/02 07:56:57;;;;;;;12.35;11.13;;;;;;;4.45;85.83;101842.66;5109018;28;20066;-57
2023/04/02 07:59:22;;;;;;;10.02;8.55;;;;;;;4.68;85.18;101857.97;5115237;28;20102;-57
2023/04/02 08:01:47;;;;;;;12.18;11.07;;;;;;;4.64;85.48;101849.25;5111959;28;20111;-57
2023/04/02 08:04:18;;;;;;;10.68;9.27;;;;;;;4.65;85.29;101853.63;5098121;27;20021;-57
2023/04/02 08:06:44;;;;;;;10.93;9.55;;;;;;;4.60;85.13;101871.31;5105008;28;20148;-57
2023/04/02 08:09:09;;;;;;;14.15;11.95;;;;;;;4.59;85.29;101864.31;5113040;28;20059;-57
2023/04/02 08:11:35;;;;;;;16.65;8.00;;;;;;;4.74;84.34;101873.66;5110380;27;20035;-57
2023/04/02 08:14:00;;;;;;;12.75;11.05;;;;;;;4.80;84.57;101872.66;5127943;27;20102;-57
2023/04/02 08:16:26;;;;;;;8.15;7.45;;;;;;;4.84;85.10;101883.06;5116203;27;20034;-57
2023/04/02 08:18:52;;;;;;;10.60;9.73;;;;;;;4.80;85.11;101883.19;5126056;27;20058;-57
2023/04/02 08:21:20;;;;;;;12.65;11.18;;;;;;;4.72;85.68;101888.63;5112557;28;20028;-57
2023/04/02 08:23:45;;;;;;;12.35;11.00;;;;;;;4.75;84.04;101888.56;5113507;28;20027;-57
2023/04/02 08:26:17;;;;;;;12.65;10.98;;;;;;;4.74;83.99;101902.63;5104845;27;20028;-57
2023/04/02 08:28:45;;;;;;;12.65;11.38;;;;;;;4.71;83.72;101900.06;5112318;28;20038;-57
2023/04/02 08:31:10;;;;;;;10.25;9.07;;;;;;;4.87;83.45;101906.72;5114008;27;20378;-57
2023/04/02 08:33:35;;;;;;;9.35;8.38;;;;;;;5.08;83.76;101915.91;5102800;28;20057;-57
2023/04/02 08:36:01;;;;;;;12.13;9.63;;;;;;;5.08;82.81;101918.53;5110422;28;20024;-57
2023/04/02 08:38:26;;;;;;;11.02;9.98;;;;;;;5.13;82.23;101932.50;5109719;28;20059;-57
2023/04/02 08:40:58;;;;;;;11.20;10.20;;;;;;;5.24;82.56;101943.66;5079533;28;20020;-57
2023/04/02 08:43:44;;;;;;;9.88;7.93;;;;;;;5.35;82.09;101942.53;5112009;27;20048;-57
2023/04/02 08:46:18;;;;;;;11.40;9.98;;;;;;;5.00;82.31;101954.78;5118109;27;20066;-57
2023/04/02 08:48:54;;;;;;;9.77;8.57;;;;;;;5.08;83.14;101954.59;5112054;27;20028;-57
2023/04/02 08:51:29;;;;;;;9.75;8.48;;;;;;;5.17;82.26;101957.03;5111189;28;20024;-57
2023/04/02 08:54:02;;;;;;;10.27;9.35;;;;;;;5.10;80.94;101958.06;5095767;28;20016;-57
2023/04/02 08:56:43;;;;;;;9.82;8.93;;;;;;;5.19;81.52;101964.00;5096767;28;20486;-57
2023/04/02 08:59:23;;;;;;;11.55;9.38;;;;;;;5.27;82.22;101981.44;5112632;28;20030;-57
2023/04/02 09:02:05;;;;;;;17.88;16.20;;;;;;;5.08;82.70;101965.16;5113102;28;20025;-57
2023/04/02 09:04:32;;;;;;;12.02;10.02;;;;;;;5.19;83.14;101981.59;5103338;28;20072;-57
2023/04/02 09:06:59;;;;;;;13.15;11.85;;;;;;;5.11;81.56;101997.56;5113580;28;20020;-57
2023/04/02 09:09:26;;;;;;;14.32;12.82;;;;;;;5.09;81.81;102006.41;5113272;28;20023;-57
2023/04/02 09:12:02;;;;;;;11.52;8.95;;;;;;;5.22;81.99;102002.63;5109654;28;20027;-57
2023/04/02 09:14:46;;;;;;;15.80;14.27;;;;;;;5.08;82.31;101973.06;5113103;28;20060;-57
2023/04/02 09:17:18;;;;;;;9.02;7.85;;;;;;;5.37;81.44;102002.28;5108020;28;20543;-57
2023/04/02 09:19:56;;;;;;;13.88;12.48;;;;;;;5.34;81.47;102009.41;5100737;27;20070;-57
2023/04/02 09:22:27;;;;;;;11.82;10.82;;;;;;;5.34;79.95;102007.63;5125431;27;20051;-57
2023/04/02 09:25:00;;;;;;;12.07;11.00;;;;;;;5.42;80.05;102025.94;5093045;28;20517;-57
2023/04/02 09:27:31;;;;;;;9.57;8.50;;;;;;;5.29;80.66;102024.44;5117625;27;20030;-57
2023/04/02 09:30:05;;;;;;;10.65;9.70;;;;;;;5.21;80.26;102030.78;5130453;27;20152;-58
2023/04/02 09:32:50;;;;;;;11.20;8.77;;;;;;;5.45;80.29;102042.56;5088520;28;20128;-57
2023/04/02 09:35:18;;;;;;;10.50;9.50;;;;;;;5.36;79.73;102039.25;5093576;27;20092;-58
2023/04/02 09:37:44;;;;;;;9.65;8.80;;;;;;;5.37;79.36;102046.25;5113997;27;20038;-57
2023/04/02 09:40:26;;;;;;;12.30;11.00;;;;;;;5.29;79.97;102051.69;5111808;28;20502;-57
2023/04/02 09:43:17;;;;;;;9.23;8.32;;;;;;;5.37;80.26;102057.69;5104860;27;20116;-58
2023/04/02 09:45:56;;;;;;;11.48;10.30;;;;;;;5.26;80.44;102061.44;5077888;28;20011;-57
2023/04/02 09:48:22;;;;;;;10.32;9.32;;;;;;;5.26;80.26;102064.09;5094434;28;20016;-57
2023/04/02 09:50:47;;;;;;;10.88;9.85;;;;;;;5.30;81.40;102068.41;5093946;28;20039;-57
2023/04/02 09:53:36;;;;;;;9.77;8.88;;;;;;;5.36;80.38;102076.19;5112342;27;20039;-58
2023/04/02 09:56:14;;;;;;;10.18;9.23;;;;;;;5.28;80.16;102071.06;5109245;28;20039;-58
2023/04/02 09:58:41;;;;;;;11.85;10.75;;;;;;;5.35;80.26;102090.25;5105361;27;20031;-58
2023/04/02 10:01:27;;;;;;;9.32;8.52;;;;;;;5.33;80.30;102086.81;5105464;28;20058;-58
2023/04/02 10:03:55;;;;;;;9.13;8.20;;;;;;;5.32;80.89;102079.78;5109120;27;20356;-58
2023/04/02 10:06:21;;;;;;;12.52;11.35;;;;;;;5.25;80.46;102094.88;5090819;27;20417;-57
2023/04/02 10:08:46;;;;;;;22.77;19.02;;;;;;;5.12;80.29;102090.75;5080454;28;20036;-57
2023/04/02 10:11:25;;;;;;;28.77;25.35;;;;;;;5.17;81.48;102107.34;5108685;28;20031;-57
2023/04/02 10:13:59;;;;;;;113.47;63.97;;;;;;;5.24;81.36;102094.00;5093308;28;20111;-57
2023/04/02 10:16:43;;;;;;;80.95;50.63;;;;;;;5.21;81.27;102106.41;5089139;28;20024;-58
2023/04/02 10:19:36;;;;;;;34.97;25.15;;;;;;;5.30;82.82;102108.84;5117976;27;20041;-57
2023/04/02 10:22:07;;;;;;;214.10;131.13;;;;;;;5.44;83.76;102108.53;5101059;27;20367;-58
2023/04/02 10:24:33;;;;;;;141.00;89.30;;;;;;;5.38;80.75;102113.94;5093692;28;20398;-57
2023/04/02 10:26:58;;;;;;;24.13;21.17;;;;;;;5.21;80.91;102122.22;5109121;28;20031;-57
2023/04/02 10:29:43;;;;;;;12.50;11.27;;;;;;;5.21;81.64;102127.50;5110619;28;20037;-58
2023/04/02 10:32:20;;;;;;;11.23;10.05;;;;;;;5.27;81.23;102129.13;5112230;28;20023;-57
2023/04/02 10:35:12;;;;;;;12.18;11.02;;;;;;;5.27;80.50;102134.41;5093198;28;20508;-57
2023/04/02 10:37:44;;;;;;;11.65;10.55;;;;;;;5.14;82.00;102141.69;5091593;28;20401;-57
2023/04/02 10:40:22;;;;;;;9.13;8.27;;;;;;;5.25;81.22;102155.53;5090230;28;20074;-57
2023/04/02 10:43:19;;;;;;;11.40;10.30;;;;;;;5.25;81.28;102158.16;5114788;28;20043;-57
2023/04/02 10:45:59;;;;;;;9.45;7.85;;;;;;;5.33;80.01;102165.94;5108342;28;20057;-57
2023/04/02 10:48:38;;;;;;;8.32;7.63;;;;;;;5.31;79.98;102159.81;5093170;28;20063;-57
2023/04/02 10:51:23;;;;;;;8.07;7.38;;;;;;;5.38;81.13;102151.75;5111156;28;20531;-57
2023/04/02 10:54:05;;;;;;;11.00;8.98;;;;;;;5.43;80.31;102157.78;5089251;28;20036;-57
2023/04/02 10:56:31;;;;;;;11.45;8.52;;;;;;;5.47;79.60;102159.50;5108590;28;20066;-57
2023/04/02 10:59:07;;;;;;;9.00;8.27;;;;;;;5.40;80.73;102157.00;5092839;28;20528;-57
2023/04/02 11:01:34;;;;;;;8.95;8.13;;;;;;;5.61;79.92;102168.88;5092601;28;20027;-57
2023/04/02 11:04:13;;;;;;;10.65;9.85;;;;;;;5.63;79.93;102172.34;5120465;28;20019;-57
2023/04/02 11:06:52;;;;;;;10.48;9.57;;;;;;;5.65;78.92;102181.13;5109968;28;20065;-57
2023/04/02 11:09:25;;;;;;;10.63;9.68;;;;;;;5.70;79.55;102179.22;5115268;27;20038;-57
2023/04/02 11:11:55;;;;;;;11.00;10.00;;;;;;;5.62;79.40;102186.47;5110490;28;20051;-57
2023/04/02 11:14:20;;;;;;;13.40;12.15;;;;;;;5.61;79.22;102187.34;5110399;28;20027;-57
2023/04/02 11:16:49;;;;;;;12.65;11.45;;;;;;;5.65;78.03;102186.41;5108324;28;20035;-57
2023/04/02 11:19:17;;;;;;;25.40;21.95;;;;;;;5.73;77.85;102197.63;5095849;28;20032;-57
2023/04/02 11:21:51;;;;;;;23.65;20.52;;;;;;;5.83;76.92;102196.56;5115124;28;20099;-57
2023/04/02 11:24:35;;;;;;;13.98;12.50;;;;;;;5.95;76.82;102208.66;5111777;27;20066;-57
2023/04/02 11:27:10;;;;;;;14.07;12.57;;;;;;;5.95;78.37;102208.66;5114724;28;20028;-57
2023/04/02 11:29:45;;;;;;;13.27;12.07;;;;;;;6.04;76.73;102218.16;5108775;27;20419;-57
2023/04/02 11:32:20;;;;;;;13.13;12.07;;;;;;;6.02;77.24;102219.94;5091895;27;20031;-57
2023/04/02 11:34:45;;;;;;;14.73;13.35;;;;;;;6.09;77.23;102219.78;5114515;28;20510;-57
2023/04/02 11:37:32;;;;;;;10.50;8.52;;;;;;;6.06;77.93;102227.78;5094353;27;20031;-57
2023/04/02 11:40:18;;;;;;;10.32;9.23;;;;;;;5.93;76.19;102221.00;5097475;28;20027;-57
2023/04/02 11:42:51;;;;;;;10.45;9.50;;;;;;;5.94;77.84;102230.66;5103459;28;20036;-57
2023/04/02 11:45:22;;;;;;;10.98;10.07;;;;;;;5.96;76.66;102226.22;5114344;28;20527;-57
2023/04/02 11:48:00;;;;;;;10.10;9.20;;;;;;;6.20;77.21;102234.50;5111796;27;20023;-57
2023/04/02 11:50:42;;;;;;;10.82;9.82;;;;;;;6.18;77.63;102231.03;5114737;27;20106;-57